createdAt,value
2023-01-19T00:02:25.403Z,1.20
2023-01-19T00:07:27.544Z,1.08
2023-01-19T00:12:29.704Z,1.50
2023-01-19T00:17:31.804Z,1.60
2023-01-19T00:22:33.856Z,1.63
2023-01-19T00:27:35.886Z,1.10
2023-01-19T00:32:38.059Z,1.15
2023-01-19T00:37:40.314Z,1.25
2023-01-19T00:42:45.556Z,1.40
2023-01-19T00:47:49.262Z,1.15
2023-01-19T00:52:53.729Z,2.35
2023-01-19T00:57:55.901Z,2.03
2023-01-19T01:02:58.440Z,1.90
2023-01-19T01:08:00.790Z,2.00
2023-01-19T01:13:23.704Z,1.98
2023-01-19T01:18:26.571Z,2.20
2023-01-19T01:23:28.656Z,2.35
2023-01-19T01:28:31.614Z,2.03
2023-01-19T01:33:40.885Z,1.90
2023-01-19T01:38:43.927Z,1.48
2023-01-19T01:43:53.528Z,2.28
2023-01-19T01:49:10.497Z,1.92
2023-01-19T01:54:42.414Z,1.83
2023-01-19T01:59:48.658Z,0.90
2023-01-19T02:04:54.391Z,1.00
2023-01-19T02:15:20.238Z,1.10
2023-01-19T02:20:26.564Z,1.38
2023-01-19T02:25:29.155Z,1.40
2023-01-19T02:30:31.382Z,1.45
2023-01-19T02:35:38.033Z,1.80
2023-01-19T02:40:42.780Z,1.38
2023-01-19T02:45:45.867Z,0.80
2023-01-19T02:50:52.262Z,1.15
2023-01-19T02:56:00.912Z,1.20
2023-01-19T03:01:26.774Z,0.88
2023-01-19T03:07:14.202Z,1.00
2023-01-19T03:12:19.484Z,1.23
2023-01-19T03:17:22.392Z,1.30
2023-01-19T03:22:29.582Z,1.30
2023-01-19T03:27:40.908Z,1.42
2023-01-19T03:32:51.212Z,1.10
2023-01-19T03:37:56.028Z,1.40
2023-01-19T03:43:01.263Z,1.00
2023-01-19T03:48:05.109Z,1.10
2023-01-19T03:53:13.919Z,1.77
2023-01-19T03:58:16.004Z,1.52
2023-01-19T04:03:18.798Z,2.10
2023-01-19T04:08:20.990Z,1.60
2023-01-19T04:13:23.239Z,1.52
2023-01-19T04:18:25.304Z,1.40
2023-01-19T04:23:28.268Z,1.40
2023-01-19T04:28:31.163Z,1.25
2023-01-19T04:33:33.835Z,1.10
2023-01-19T04:38:36.208Z,0.80
2023-01-19T04:43:38.450Z,0.90
2023-01-19T04:48:42.005Z,1.08
2023-01-19T04:53:44.253Z,0.80
2023-01-19T04:58:46.430Z,1.20
2023-01-19T05:03:48.568Z,1.10
2023-01-19T05:08:50.963Z,1.00
2023-01-19T05:13:53.226Z,0.90
2023-01-19T05:18:55.341Z,1.10
2023-01-19T05:23:57.395Z,1.45
2023-01-19T05:28:59.619Z,1.25
2023-01-19T05:34:01.706Z,1.10
2023-01-19T05:39:03.964Z,1.10
2023-01-19T05:44:06.009Z,1.10
2023-01-19T05:49:08.145Z,1.05
2023-01-19T05:54:10.159Z,1.20
2023-01-19T05:59:12.471Z,0.82
2023-01-19T06:04:14.459Z,1.10
2023-01-19T06:09:17.421Z,1.00
2023-01-19T06:14:19.507Z,1.02
2023-01-19T06:19:21.542Z,1.10
2023-01-19T06:24:24.171Z,1.02
2023-01-19T06:29:28.710Z,0.95
2023-01-19T06:34:31.423Z,0.77
2023-01-19T06:39:33.465Z,1.20
2023-01-19T06:44:35.586Z,1.00
2023-01-19T06:49:37.650Z,1.20
2023-01-19T06:54:39.662Z,0.98
2023-01-19T06:59:42.126Z,1.50
2023-01-19T07:04:44.192Z,1.95
2023-01-19T07:09:46.190Z,2.35
2023-01-19T07:14:50.535Z,2.90
2023-01-19T07:19:52.601Z,5.05
2023-01-19T07:24:54.595Z,5.03
2023-01-19T07:29:56.800Z,3.20
2023-01-19T07:34:58.871Z,2.53
2023-01-19T07:40:00.966Z,1.83
2023-01-19T07:45:03.030Z,2.67
2023-01-19T07:50:05.746Z,2.38
2023-01-19T07:55:08.620Z,1.90
2023-01-19T08:00:11.457Z,1.88
2023-01-19T08:05:17.667Z,2.40
2023-01-19T08:10:22.936Z,1.63
2023-01-19T08:15:25.275Z,1.65
2023-01-19T08:20:28.825Z,1.60
2023-01-19T08:25:36.786Z,1.75
2023-01-19T08:30:40.445Z,1.73
2023-01-19T08:35:47.191Z,1.48
2023-01-19T08:40:49.262Z,1.50
2023-01-19T08:45:52.764Z,1.40
2023-01-19T08:50:54.816Z,1.30
2023-01-19T08:56:00.043Z,1.65
2023-01-19T09:01:03.204Z,2.38
2023-01-19T09:06:07.185Z,3.05
2023-01-19T09:11:14.064Z,5.95
2023-01-19T09:16:16.181Z,7.32
2023-01-19T09:21:21.517Z,5.03
2023-01-19T09:26:23.903Z,3.60
2023-01-19T09:31:26.208Z,2.50
2023-01-19T09:36:28.371Z,3.58
2023-01-19T09:41:33.720Z,2.65
2023-01-19T09:46:39.955Z,2.88
2023-01-19T09:51:46.601Z,5.72
2023-01-19T09:56:52.387Z,7.75
2023-01-19T10:02:16.414Z,7.32
2023-01-19T10:07:45.707Z,4.43
2023-01-19T10:12:55.943Z,3.10
2023-01-19T10:18:23.041Z,2.60
2023-01-19T10:23:50.033Z,2.30
2023-01-19T10:28:56.394Z,1.88
2023-01-19T10:33:58.576Z,1.70
2023-01-19T10:39:00.706Z,2.00
2023-01-19T10:44:04.372Z,1.70
2023-01-19T10:49:06.963Z,1.90
2023-01-19T10:54:13.089Z,1.40
2023-01-19T10:59:46.958Z,1.50
2023-01-19T11:04:52.861Z,1.55
2023-01-19T11:10:16.148Z,1.23
2023-01-19T11:15:22.997Z,1.30
2023-01-19T11:20:44.146Z,1.50
2023-01-19T11:25:48.664Z,2.35
2023-01-19T11:31:00.043Z,1.75
2023-01-19T11:36:05.620Z,1.70
2023-01-19T11:41:17.985Z,1.70
2023-01-19T11:46:23.659Z,1.38
2023-01-19T11:51:30.656Z,1.35
2023-01-19T11:56:32.647Z,1.58
2023-01-19T12:01:39.977Z,1.75
2023-01-19T12:06:49.468Z,2.45
2023-01-19T12:11:57.642Z,2.38
2023-01-19T12:17:03.045Z,2.08
2023-01-19T12:22:05.977Z,1.58
2023-01-19T12:27:22.534Z,1.17
2023-01-19T12:32:36.901Z,1.20
2023-01-19T12:37:42.929Z,1.30
2023-01-19T12:42:47.712Z,1.38
2023-01-19T12:47:54.029Z,2.08
2023-01-19T12:52:59.953Z,1.30
2023-01-19T13:03:19.239Z,1.65
2023-01-19T13:08:28.267Z,1.17
2023-01-19T13:13:31.397Z,1.83
2023-01-19T13:18:39.917Z,1.60
2023-01-19T13:23:49.915Z,2.08
2023-01-19T13:29:14.037Z,1.80
2023-01-19T13:34:22.275Z,1.60
2023-01-19T13:39:37.003Z,1.42
2023-01-19T13:44:47.179Z,1.60
2023-01-19T13:49:55.670Z,1.50
2023-01-19T13:55:03.957Z,1.20
2023-01-19T14:00:12.379Z,2.55
2023-01-19T14:05:32.818Z,1.48
2023-01-19T14:10:42.685Z,2.30
2023-01-19T14:15:46.543Z,3.03
2023-01-19T14:21:07.597Z,1.92
2023-01-19T14:26:37.831Z,1.65
2023-01-19T14:31:48.339Z,2.03
2023-01-19T14:36:51.597Z,2.13
2023-01-19T14:41:55.816Z,1.63
2023-01-19T14:46:59.616Z,1.77
2023-01-19T14:52:16.974Z,3.17
2023-01-19T14:57:19.062Z,2.03
2023-01-19T15:02:21.402Z,1.98
2023-01-19T15:07:25.136Z,4.25
2023-01-19T15:12:29.155Z,1.73
2023-01-19T15:17:32.600Z,2.45
2023-01-19T15:22:34.618Z,2.10
2023-01-19T15:27:36.636Z,2.45
2023-01-19T15:32:43.731Z,1.88
2023-01-19T15:37:46.138Z,1.40
2023-01-19T15:42:48.126Z,1.20
2023-01-19T15:47:50.185Z,1.60
2023-01-19T15:52:52.265Z,2.00
2023-01-19T15:57:58.439Z,2.17
2023-01-19T16:03:03.499Z,1.90
2023-01-19T16:08:05.742Z,2.40
2023-01-19T16:13:09.339Z,3.58
2023-01-19T16:18:11.380Z,3.20
2023-01-19T16:23:15.473Z,2.65
2023-01-19T16:28:17.786Z,1.80
2023-01-19T16:33:19.898Z,2.45
2023-01-19T16:38:23.303Z,2.38
2023-01-19T16:43:27.555Z,1.77
2023-01-19T16:48:32.259Z,1.97
2023-01-19T16:53:35.271Z,1.92
2023-01-19T16:58:40.074Z,3.72
2023-01-19T17:03:42.395Z,5.15
2023-01-19T17:08:44.955Z,4.50
2023-01-19T17:13:48.447Z,6.22
2023-01-19T17:18:51.104Z,5.60
2023-01-19T17:23:55.112Z,7.43
2023-01-19T17:29:05.363Z,1.15
2023-01-19T17:34:08.773Z,0.70
2023-01-19T17:39:14.944Z,1.27
2023-01-19T17:44:17.753Z,1.30
2023-01-19T17:49:19.940Z,2.67
2023-01-19T17:54:22.342Z,2.60
2023-01-19T17:59:24.443Z,3.35
2023-01-19T18:04:26.496Z,3.38
2023-01-19T18:09:28.604Z,3.90
2023-01-19T18:14:30.660Z,4.22
2023-01-19T18:19:32.915Z,9.18
2023-01-19T18:24:35.190Z,10.50
2023-01-19T18:29:37.679Z,8.25
2023-01-19T18:34:39.875Z,8.40
2023-01-19T18:39:41.929Z,10.30
2023-01-19T18:44:44.005Z,12.18
2023-01-19T18:49:46.007Z,11.60
2023-01-19T18:54:51.063Z,11.18
2023-01-19T18:59:53.404Z,11.67
2023-01-19T19:04:55.405Z,10.48
2023-01-19T19:09:57.405Z,8.85
2023-01-19T19:14:59.498Z,8.70
2023-01-19T19:20:01.747Z,8.75
2023-01-19T19:25:03.981Z,7.05
2023-01-19T19:30:06.527Z,7.72
2023-01-19T19:35:09.017Z,10.98
2023-01-19T19:40:11.815Z,12.57
2023-01-19T19:45:14.898Z,12.38
2023-01-19T19:50:17.161Z,11.60
2023-01-19T19:55:19.232Z,9.70
2023-01-19T20:00:21.570Z,8.27
2023-01-19T20:05:23.650Z,8.20
2023-01-19T20:10:26.308Z,9.15
2023-01-19T20:15:28.400Z,9.32
2023-01-19T20:20:30.484Z,9.10
2023-01-19T20:25:32.587Z,9.80
2023-01-19T20:30:34.697Z,12.38
2023-01-19T20:35:36.786Z,14.75
2023-01-19T20:40:38.814Z,14.07
2023-01-19T20:45:40.856Z,11.82
2023-01-19T20:50:42.862Z,11.35
2023-01-19T20:55:44.840Z,12.98
2023-01-19T21:00:46.902Z,12.45
2023-01-19T21:05:49.158Z,9.57
2023-01-19T21:10:55.162Z,7.72
2023-01-19T21:15:57.519Z,8.25
2023-01-19T21:20:59.530Z,7.88
2023-01-19T21:26:01.839Z,8.43
2023-01-19T21:31:10.047Z,8.98
2023-01-19T21:36:12.150Z,9.02
2023-01-19T21:41:16.246Z,9.60
2023-01-19T21:46:33.111Z,10.23
2023-01-19T21:51:37.179Z,9.43
2023-01-19T21:56:39.320Z,7.30
2023-01-19T22:01:44.901Z,6.15
2023-01-19T22:06:47.160Z,7.20
2023-01-19T22:11:49.565Z,7.28
2023-01-19T22:16:51.680Z,9.07
2023-01-19T22:21:53.846Z,8.60
2023-01-19T22:26:56.124Z,8.18
2023-01-19T22:31:58.231Z,10.80
2023-01-19T22:37:00.819Z,13.10
2023-01-19T22:42:02.938Z,13.82
2023-01-19T22:47:05.060Z,8.70
2023-01-19T22:52:07.151Z,6.90
2023-01-19T22:57:11.841Z,8.70
2023-01-19T23:02:14.145Z,7.45
2023-01-19T23:07:16.362Z,7.38
2023-01-19T23:12:18.458Z,6.97
2023-01-19T23:17:20.772Z,6.93
2023-01-19T23:22:23.044Z,6.75
2023-01-19T23:27:25.198Z,11.48
2023-01-19T23:32:27.388Z,7.50
2023-01-19T23:37:29.480Z,6.78
2023-01-19T23:42:31.641Z,5.90
2023-01-19T23:47:35.666Z,6.22
2023-01-19T23:52:37.784Z,5.95
2023-01-19T23:57:39.842Z,5.75
